Bowling Green, Illinois
Current Conditions -  °F | °C
As of 6:35 PM on Thursday 27 Nov 2014 (Local Time) from K1H2 Reporting Station
Clear Clear  
Wind Chill: -10°   Ceiling: Unl
Heat Index: -6°   Visibility: 10mi
Dew Point: -10°   Wind: 6mph
Humidity: 73%   Direction: 310°NW
Pressure: 30.47"   Gusts: NA
Location:  39.2184°N, 88.9038°W
Report Text: K1H2 280035Z AUTO 31005KT 10SM CLR M06/M10 A3047 RMK AO2 T10611103
Loading
Personal Weather Stations






























Interactive Weather Map New forecast layout! Learn more

10-Day Weather Forecast

Advertisements
Track Severe Weather on mobile